sensor_id;sensor_type;location;lat;lon;timestamp;P1;durP1;ratioP1;P2;durP2;ratioP2
20695;SDS011;10507;52.754;13.040;2023-05-15T00:00:04;8.68;;;6.45;;
20695;SDS011;10507;52.754;13.040;2023-05-15T00:02:37;9.63;;;6.97;;
20695;SDS011;10507;52.754;13.040;2023-05-15T00:05:05;8.60;;;6.63;;
20695;SDS011;10507;52.754;13.040;2023-05-15T00:07:34;9.90;;;7.35;;
20695;SDS011;10507;52.754;13.040;2023-05-15T00:10:03;9.60;;;7.00;;
20695;SDS011;10507;52.754;13.040;2023-05-15T00:12:31;11.05;;;7.60;;
20695;SDS011;10507;52.754;13.040;2023-05-15T00:14:59;11.70;;;7.55;;
20695;SDS011;10507;52.754;13.040;2023-05-15T00:17:26;8.05;;;7.22;;
20695;SDS011;10507;52.754;13.040;2023-05-15T00:19:56;11.75;;;8.15;;
20695;SDS011;10507;52.754;13.040;2023-05-15T00:22:25;8.85;;;6.82;;
20695;SDS011;10507;52.754;13.040;2023-05-15T00:24:52;9.77;;;6.40;;
20695;SDS011;10507;52.754;13.040;2023-05-15T00:27:20;8.52;;;7.20;;
20695;SDS011;10507;52.754;13.040;2023-05-15T00:29:48;8.95;;;6.30;;
20695;SDS011;10507;52.754;13.040;2023-05-15T00:32:16;8.50;;;7.25;;
20695;SDS011;10507;52.754;13.040;2023-05-15T00:34:43;10.80;;;7.63;;
20695;SDS011;10507;52.754;13.040;2023-05-15T00:37:12;10.40;;;6.20;;
20695;SDS011;10507;52.754;13.040;2023-05-15T00:39:40;8.30;;;6.30;;
20695;SDS011;10507;52.754;13.040;2023-05-15T00:42:08;8.48;;;6.75;;
20695;SDS011;10507;52.754;13.040;2023-05-15T00:44:38;10.57;;;7.07;;
20695;SDS011;10507;52.754;13.040;2023-05-15T00:47:07;9.38;;;6.70;;
20695;SDS011;10507;52.754;13.040;2023-05-15T00:49:37;10.00;;;7.03;;
20695;SDS011;10507;52.754;13.040;2023-05-15T00:52:05;9.75;;;6.15;;
20695;SDS011;10507;52.754;13.040;2023-05-15T00:54:35;9.52;;;7.65;;
20695;SDS011;10507;52.754;13.040;2023-05-15T00:57:03;8.18;;;7.10;;
20695;SDS011;10507;52.754;13.040;2023-05-15T00:59:32;9.27;;;6.90;;
20695;SDS011;10507;52.754;13.040;2023-05-15T01:02:00;12.02;;;8.88;;
20695;SDS011;10507;52.754;13.040;2023-05-15T01:04:29;11.07;;;7.95;;
20695;SDS011;10507;52.754;13.040;2023-05-15T01:06:57;8.80;;;7.70;;
20695;SDS011;10507;52.754;13.040;2023-05-15T01:09:25;10.13;;;7.97;;
20695;SDS011;10507;52.754;13.040;2023-05-15T01:11:58;9.90;;;8.10;;
20695;SDS011;10507;52.754;13.040;2023-05-15T01:14:28;10.93;;;8.25;;
20695;SDS011;10507;52.754;13.040;2023-05-15T01:16:56;9.70;;;7.83;;
20695;SDS011;10507;52.754;13.040;2023-05-15T01:19:24;11.82;;;7.72;;
20695;SDS011;10507;52.754;13.040;2023-05-15T01:22:08;11.55;;;7.45;;
20695;SDS011;10507;52.754;13.040;2023-05-15T01:25:06;9.43;;;7.78;;
20695;SDS011;10507;52.754;13.040;2023-05-15T01:28:04;11.13;;;8.23;;
20695;SDS011;10507;52.754;13.040;2023-05-15T01:30:36;10.13;;;7.15;;
20695;SDS011;10507;52.754;13.040;2023-05-15T01:33:07;10.93;;;7.90;;
20695;SDS011;10507;52.754;13.040;2023-05-15T01:35:44;12.85;;;8.32;;
20695;SDS011;10507;52.754;13.040;2023-05-15T01:38:18;10.43;;;8.23;;
20695;SDS011;10507;52.754;13.040;2023-05-15T01:40:55;10.68;;;8.50;;
20695;SDS011;10507;52.754;13.040;2023-05-15T01:43:32;8.93;;;7.75;;
20695;SDS011;10507;52.754;13.040;2023-05-15T01:46:06;12.00;;;7.72;;
20695;SDS011;10507;52.754;13.040;2023-05-15T01:48:36;11.23;;;8.23;;
20695;SDS011;10507;52.754;13.040;2023-05-15T01:51:05;9.98;;;8.55;;
20695;SDS011;10507;52.754;13.040;2023-05-15T01:53:35;13.97;;;8.43;;
20695;SDS011;10507;52.754;13.040;2023-05-15T01:56:06;10.95;;;8.55;;
20695;SDS011;10507;52.754;13.040;2023-05-15T01:58:37;14.20;;;9.20;;
20695;SDS011;10507;52.754;13.040;2023-05-15T02:01:07;10.70;;;9.10;;
20695;SDS011;10507;52.754;13.040;2023-05-15T02:03:36;11.75;;;8.93;;
20695;SDS011;10507;52.754;13.040;2023-05-15T02:06:06;11.20;;;8.07;;
20695;SDS011;10507;52.754;13.040;2023-05-15T02:08:34;14.17;;;9.07;;
20695;SDS011;10507;52.754;13.040;2023-05-15T02:11:03;10.32;;;8.65;;
20695;SDS011;10507;52.754;13.040;2023-05-15T02:13:32;11.57;;;8.97;;
20695;SDS011;10507;52.754;13.040;2023-05-15T02:16:02;12.90;;;9.35;;
20695;SDS011;10507;52.754;13.040;2023-05-15T02:18:30;11.93;;;8.73;;
20695;SDS011;10507;52.754;13.040;2023-05-15T02:20:59;10.07;;;8.57;;
20695;SDS011;10507;52.754;13.040;2023-05-15T02:23:28;12.00;;;9.03;;
20695;SDS011;10507;52.754;13.040;2023-05-15T02:26:02;11.90;;;9.10;;
20695;SDS011;10507;52.754;13.040;2023-05-15T02:28:49;9.30;;;8.30;;
20695;SDS011;10507;52.754;13.040;2023-05-15T02:31:28;16.40;;;9.07;;
20695;SDS011;10507;52.754;13.040;2023-05-15T02:34:02;12.83;;;10.07;;
20695;SDS011;10507;52.754;13.040;2023-05-15T02:36:39;13.83;;;9.20;;
20695;SDS011;10507;52.754;13.040;2023-05-15T02:39:09;13.63;;;9.93;;
20695;SDS011;10507;52.754;13.040;2023-05-15T02:41:37;13.47;;;10.83;;
20695;SDS011;10507;52.754;13.040;2023-05-15T02:44:06;12.50;;;9.38;;
20695;SDS011;10507;52.754;13.040;2023-05-15T02:46:38;12.20;;;9.20;;
20695;SDS011;10507;52.754;13.040;2023-05-15T02:49:07;12.40;;;10.87;;
20695;SDS011;10507;52.754;13.040;2023-05-15T02:51:36;14.10;;;10.75;;
20695;SDS011;10507;52.754;13.040;2023-05-15T02:54:04;14.87;;;10.00;;
20695;SDS011;10507;52.754;13.040;2023-05-15T02:56:34;12.63;;;10.13;;
20695;SDS011;10507;52.754;13.040;2023-05-15T02:59:01;11.63;;;9.93;;
20695;SDS011;10507;52.754;13.040;2023-05-15T03:01:30;11.53;;;9.47;;
20695;SDS011;10507;52.754;13.040;2023-05-15T03:03:59;11.50;;;8.57;;
20695;SDS011;10507;52.754;13.040;2023-05-15T03:06:26;13.95;;;9.80;;
20695;SDS011;10507;52.754;13.040;2023-05-15T03:08:54;13.25;;;10.52;;
20695;SDS011;10507;52.754;13.040;2023-05-15T03:11:22;10.70;;;9.60;;
20695;SDS011;10507;52.754;13.040;2023-05-15T03:13:50;16.80;;;9.65;;
20695;SDS011;10507;52.754;13.040;2023-05-15T03:16:18;13.03;;;10.17;;
20695;SDS011;10507;52.754;13.040;2023-05-15T03:18:46;13.87;;;10.00;;
20695;SDS011;10507;52.754;13.040;2023-05-15T03:21:15;14.70;;;10.80;;
20695;SDS011;10507;52.754;13.040;2023-05-15T03:23:43;13.70;;;10.10;;
20695;SDS011;10507;52.754;13.040;2023-05-15T03:26:11;15.00;;;10.23;;
20695;SDS011;10507;52.754;13.040;2023-05-15T03:28:39;11.40;;;9.97;;
20695;SDS011;10507;52.754;13.040;2023-05-15T03:31:07;13.87;;;9.97;;
20695;SDS011;10507;52.754;13.040;2023-05-15T03:33:36;12.90;;;9.85;;
20695;SDS011;10507;52.754;13.040;2023-05-15T03:36:04;14.73;;;9.45;;
20695;SDS011;10507;52.754;13.040;2023-05-15T03:38:34;15.57;;;9.30;;
20695;SDS011;10507;52.754;13.040;2023-05-15T03:41:02;13.48;;;9.65;;
20695;SDS011;10507;52.754;13.040;2023-05-15T03:43:29;12.93;;;10.27;;
20695;SDS011;10507;52.754;13.040;2023-05-15T03:45:57;17.92;;;10.80;;
20695;SDS011;10507;52.754;13.040;2023-05-15T03:48:27;16.20;;;10.57;;
20695;SDS011;10507;52.754;13.040;2023-05-15T03:50:55;13.32;;;9.95;;
20695;SDS011;10507;52.754;13.040;2023-05-15T03:53:23;10.93;;;9.75;;
20695;SDS011;10507;52.754;13.040;2023-05-15T03:55:52;11.85;;;9.90;;
20695;SDS011;10507;52.754;13.040;2023-05-15T03:58:20;13.10;;;9.80;;
20695;SDS011;10507;52.754;13.040;2023-05-15T04:00:51;11.88;;;9.57;;
20695;SDS011;10507;52.754;13.040;2023-05-15T04:03:19;12.52;;;10.15;;
20695;SDS011;10507;52.754;13.040;2023-05-15T04:05:47;11.93;;;9.68;;
20695;SDS011;10507;52.754;13.040;2023-05-15T04:08:17;10.68;;;9.38;;
20695;SDS011;10507;52.754;13.040;2023-05-15T04:10:44;12.45;;;9.80;;
20695;SDS011;10507;52.754;13.040;2023-05-15T04:13:14;11.30;;;9.82;;
20695;SDS011;10507;52.754;13.040;2023-05-15T04:15:42;11.20;;;9.77;;
20695;SDS011;10507;52.754;13.040;2023-05-15T04:18:10;11.80;;;9.27;;
20695;SDS011;10507;52.754;13.040;2023-05-15T04:20:38;15.05;;;10.10;;
20695;SDS011;10507;52.754;13.040;2023-05-15T04:23:06;11.38;;;9.45;;
20695;SDS011;10507;52.754;13.040;2023-05-15T04:25:34;17.17;;;9.68;;
20695;SDS011;10507;52.754;13.040;2023-05-15T04:28:02;14.77;;;10.85;;
20695;SDS011;10507;52.754;13.040;2023-05-15T04:30:33;11.73;;;9.45;;
20695;SDS011;10507;52.754;13.040;2023-05-15T04:33:01;12.48;;;9.60;;
20695;SDS011;10507;52.754;13.040;2023-05-15T04:35:29;11.07;;;8.98;;
20695;SDS011;10507;52.754;13.040;2023-05-15T04:38:02;12.82;;;9.25;;
20695;SDS011;10507;52.754;13.040;2023-05-15T04:40:45;12.32;;;8.68;;
20695;SDS011;10507;52.754;13.040;2023-05-15T04:43:13;10.48;;;8.15;;
20695;SDS011;10507;52.754;13.040;2023-05-15T04:45:42;9.13;;;7.30;;
20695;SDS011;10507;52.754;13.040;2023-05-15T04:48:11;9.93;;;7.60;;
20695;SDS011;10507;52.754;13.040;2023-05-15T04:50:39;8.55;;;7.65;;
20695;SDS011;10507;52.754;13.040;2023-05-15T04:53:07;8.50;;;6.90;;
20695;SDS011;10507;52.754;13.040;2023-05-15T04:55:35;9.23;;;7.13;;
20695;SDS011;10507;52.754;13.040;2023-05-15T04:58:03;8.63;;;7.55;;
20695;SDS011;10507;52.754;13.040;2023-05-15T05:00:31;8.77;;;7.50;;
20695;SDS011;10507;52.754;13.040;2023-05-15T05:03:00;7.95;;;7.00;;
20695;SDS011;10507;52.754;13.040;2023-05-15T05:05:30;7.45;;;6.63;;
20695;SDS011;10507;52.754;13.040;2023-05-15T05:07:58;10.45;;;6.97;;
20695;SDS011;10507;52.754;13.040;2023-05-15T05:10:26;9.02;;;6.88;;
20695;SDS011;10507;52.754;13.040;2023-05-15T05:12:59;11.27;;;6.63;;
20695;SDS011;10507;52.754;13.040;2023-05-15T05:15:28;7.03;;;5.97;;
20695;SDS011;10507;52.754;13.040;2023-05-15T05:17:59;9.73;;;6.95;;
20695;SDS011;10507;52.754;13.040;2023-05-15T05:20:29;6.35;;;5.72;;
20695;SDS011;10507;52.754;13.040;2023-05-15T05:22:57;10.50;;;5.78;;
20695;SDS011;10507;52.754;13.040;2023-05-15T05:25:31;6.60;;;5.90;;
20695;SDS011;10507;52.754;13.040;2023-05-15T05:27:59;7.07;;;5.50;;
20695;SDS011;10507;52.754;13.040;2023-05-15T05:30:27;8.13;;;6.03;;
20695;SDS011;10507;52.754;13.040;2023-05-15T05:32:55;8.15;;;6.00;;
20695;SDS011;10507;52.754;13.040;2023-05-15T05:35:27;6.55;;;5.07;;
20695;SDS011;10507;52.754;13.040;2023-05-15T05:37:59;7.53;;;5.70;;
20695;SDS011;10507;52.754;13.040;2023-05-15T05:40:27;6.63;;;5.10;;
20695;SDS011;10507;52.754;13.040;2023-05-15T05:42:59;7.70;;;5.50;;
20695;SDS011;10507;52.754;13.040;2023-05-15T05:45:34;7.15;;;5.45;;
20695;SDS011;10507;52.754;13.040;2023-05-15T05:48:04;9.18;;;5.57;;
20695;SDS011;10507;52.754;13.040;2023-05-15T05:50:37;6.13;;;5.20;;
20695;SDS011;10507;52.754;13.040;2023-05-15T05:53:06;6.45;;;4.88;;
20695;SDS011;10507;52.754;13.040;2023-05-15T05:55:35;6.22;;;4.90;;
20695;SDS011;10507;52.754;13.040;2023-05-15T05:58:04;10.15;;;6.72;;
20695;SDS011;10507;52.754;13.040;2023-05-15T06:00:43;6.85;;;5.40;;
20695;SDS011;10507;52.754;13.040;2023-05-15T06:03:12;8.48;;;5.07;;
20695;SDS011;10507;52.754;13.040;2023-05-15T06:05:42;8.90;;;4.82;;
20695;SDS011;10507;52.754;13.040;2023-05-15T06:08:11;7.05;;;5.85;;
20695;SDS011;10507;52.754;13.040;2023-05-15T06:10:44;6.45;;;4.85;;
20695;SDS011;10507;52.754;13.040;2023-05-15T06:13:12;9.23;;;4.85;;
20695;SDS011;10507;52.754;13.040;2023-05-15T06:15:41;5.93;;;4.38;;
20695;SDS011;10507;52.754;13.040;2023-05-15T06:18:11;6.93;;;4.85;;
20695;SDS011;10507;52.754;13.040;2023-05-15T06:20:39;7.05;;;4.68;;
20695;SDS011;10507;52.754;13.040;2023-05-15T06:23:10;6.43;;;4.80;;
20695;SDS011;10507;52.754;13.040;2023-05-15T06:25:37;7.32;;;5.07;;
20695;SDS011;10507;52.754;13.040;2023-05-15T06:28:05;8.63;;;4.63;;
20695;SDS011;10507;52.754;13.040;2023-05-15T06:30:33;6.47;;;4.85;;
20695;SDS011;10507;52.754;13.040;2023-05-15T06:33:02;7.57;;;4.80;;
20695;SDS011;10507;52.754;13.040;2023-05-15T06:35:30;7.90;;;4.55;;
20695;SDS011;10507;52.754;13.040;2023-05-15T06:37:58;5.68;;;4.50;;
20695;SDS011;10507;52.754;13.040;2023-05-15T06:40:27;7.30;;;4.43;;
20695;SDS011;10507;52.754;13.040;2023-05-15T06:42:57;7.18;;;5.10;;
20695;SDS011;10507;52.754;13.040;2023-05-15T06:45:25;6.22;;;4.80;;
20695;SDS011;10507;52.754;13.040;2023-05-15T06:48:04;7.43;;;4.88;;
20695;SDS011;10507;52.754;13.040;2023-05-15T06:50:32;6.20;;;4.40;;
20695;SDS011;10507;52.754;13.040;2023-05-15T06:53:00;7.93;;;4.72;;
20695;SDS011;10507;52.754;13.040;2023-05-15T06:55:31;11.75;;;5.03;;
20695;SDS011;10507;52.754;13.040;2023-05-15T06:58:01;5.70;;;4.03;;
20695;SDS011;10507;52.754;13.040;2023-05-15T07:00:29;5.75;;;4.88;;
20695;SDS011;10507;52.754;13.040;2023-05-15T07:02:57;7.95;;;4.38;;
20695;SDS011;10507;52.754;13.040;2023-05-15T07:05:26;5.60;;;4.13;;
20695;SDS011;10507;52.754;13.040;2023-05-15T07:07:54;8.02;;;4.43;;
20695;SDS011;10507;52.754;13.040;2023-05-15T07:10:23;9.27;;;4.32;;
20695;SDS011;10507;52.754;13.040;2023-05-15T07:12:53;5.18;;;4.20;;
20695;SDS011;10507;52.754;13.040;2023-05-15T07:15:21;7.55;;;4.03;;
20695;SDS011;10507;52.754;13.040;2023-05-15T07:17:49;5.70;;;4.15;;
20695;SDS011;10507;52.754;13.040;2023-05-15T07:20:17;4.80;;;3.78;;
20695;SDS011;10507;52.754;13.040;2023-05-15T07:22:45;4.90;;;3.78;;
20695;SDS011;10507;52.754;13.040;2023-05-15T07:25:22;5.07;;;3.20;;
20695;SDS011;10507;52.754;13.040;2023-05-15T07:27:51;6.60;;;3.70;;
20695;SDS011;10507;52.754;13.040;2023-05-15T07:30:20;4.53;;;3.42;;
20695;SDS011;10507;52.754;13.040;2023-05-15T07:32:49;4.50;;;3.40;;
20695;SDS011;10507;52.754;13.040;2023-05-15T07:35:17;4.53;;;3.55;;
20695;SDS011;10507;52.754;13.040;2023-05-15T07:37:45;6.25;;;3.67;;
20695;SDS011;10507;52.754;13.040;2023-05-15T07:40:15;5.97;;;3.58;;
20695;SDS011;10507;52.754;13.040;2023-05-15T07:42:43;6.00;;;3.20;;
20695;SDS011;10507;52.754;13.040;2023-05-15T07:45:13;6.32;;;3.58;;
20695;SDS011;10507;52.754;13.040;2023-05-15T07:47:46;6.32;;;3.63;;
20695;SDS011;10507;52.754;13.040;2023-05-15T07:50:16;5.95;;;3.70;;
20695;SDS011;10507;52.754;13.040;2023-05-15T07:52:44;6.68;;;4.00;;
20695;SDS011;10507;52.754;13.040;2023-05-15T07:55:17;4.15;;;3.63;;
20695;SDS011;10507;52.754;13.040;2023-05-15T07:57:45;6.63;;;3.72;;
20695;SDS011;10507;52.754;13.040;2023-05-15T08:00:25;4.82;;;3.80;;
20695;SDS011;10507;52.754;13.040;2023-05-15T08:02:54;5.35;;;4.35;;
20695;SDS011;10507;52.754;13.040;2023-05-15T08:05:25;4.82;;;3.67;;
20695;SDS011;10507;52.754;13.040;2023-05-15T08:07:54;7.30;;;5.72;;
20695;SDS011;10507;52.754;13.040;2023-05-15T08:10:22;4.95;;;4.00;;
20695;SDS011;10507;52.754;13.040;2023-05-15T08:12:51;6.78;;;3.90;;
20695;SDS011;10507;52.754;13.040;2023-05-15T08:15:19;4.63;;;3.85;;
20695;SDS011;10507;52.754;13.040;2023-05-15T08:17:51;6.30;;;4.43;;
20695;SDS011;10507;52.754;13.040;2023-05-15T08:20:22;5.57;;;4.78;;
20695;SDS011;10507;52.754;13.040;2023-05-15T08:22:54;21.15;;;6.03;;
20695;SDS011;10507;52.754;13.040;2023-05-15T08:25:37;4.88;;;3.30;;
20695;SDS011;10507;52.754;13.040;2023-05-15T08:28:27;6.72;;;2.67;;
20695;SDS011;10507;52.754;13.040;2023-05-15T08:31:04;3.78;;;2.92;;
20695;SDS011;10507;52.754;13.040;2023-05-15T08:33:53;3.72;;;3.03;;
20695;SDS011;10507;52.754;13.040;2023-05-15T08:40:18;4.82;;;3.22;;
20695;SDS011;10507;52.754;13.040;2023-05-15T08:43:06;4.32;;;3.05;;
20695;SDS011;10507;52.754;13.040;2023-05-15T08:48:44;6.93;;;3.13;;
20695;SDS011;10507;52.754;13.040;2023-05-15T08:51:14;5.93;;;3.40;;
20695;SDS011;10507;52.754;13.040;2023-05-15T08:54:15;6.68;;;4.43;;
20695;SDS011;10507;52.754;13.040;2023-05-15T08:57:01;6.20;;;3.75;;
20695;SDS011;10507;52.754;13.040;2023-05-15T09:00:09;5.07;;;3.75;;
20695;SDS011;10507;52.754;13.040;2023-05-15T09:02:44;6.63;;;3.85;;
20695;SDS011;10507;52.754;13.040;2023-05-15T09:05:32;7.22;;;3.72;;
20695;SDS011;10507;52.754;13.040;2023-05-15T09:08:17;6.95;;;3.50;;
20695;SDS011;10507;52.754;13.040;2023-05-15T09:10:51;5.88;;;3.85;;
20695;SDS011;10507;52.754;13.040;2023-05-15T09:20:31;5.22;;;3.58;;
20695;SDS011;10507;52.754;13.040;2023-05-15T09:23:23;6.93;;;4.07;;
20695;SDS011;10507;52.754;13.040;2023-05-15T09:25:54;6.70;;;4.05;;
20695;SDS011;10507;52.754;13.040;2023-05-15T09:28:25;6.35;;;4.20;;
20695;SDS011;10507;52.754;13.040;2023-05-15T09:30:56;8.07;;;4.28;;
20695;SDS011;10507;52.754;13.040;2023-05-15T09:33:38;8.45;;;4.50;;
20695;SDS011;10507;52.754;13.040;2023-05-15T09:36:08;6.53;;;4.13;;
20695;SDS011;10507;52.754;13.040;2023-05-15T09:38:46;7.85;;;4.13;;
20695;SDS011;10507;52.754;13.040;2023-05-15T09:41:42;7.18;;;4.75;;
20695;SDS011;10507;52.754;13.040;2023-05-15T09:44:39;6.97;;;5.10;;
20695;SDS011;10507;52.754;13.040;2023-05-15T09:47:09;5.47;;;4.50;;
20695;SDS011;10507;52.754;13.040;2023-05-15T09:50:03;7.30;;;4.30;;
20695;SDS011;10507;52.754;13.040;2023-05-15T09:52:57;6.90;;;4.97;;
20695;SDS011;10507;52.754;13.040;2023-05-15T09:55:38;4.57;;;4.03;;
20695;SDS011;10507;52.754;13.040;2023-05-15T09:58:17;5.68;;;4.20;;
20695;SDS011;10507;52.754;13.040;2023-05-15T10:00:58;6.38;;;4.00;;
20695;SDS011;10507;52.754;13.040;2023-05-15T10:03:35;6.05;;;3.80;;
20695;SDS011;10507;52.754;13.040;2023-05-15T10:06:25;9.70;;;4.43;;
20695;SDS011;10507;52.754;13.040;2023-05-15T10:09:08;6.47;;;5.38;;
20695;SDS011;10507;52.754;13.040;2023-05-15T10:11:59;8.98;;;4.53;;
20695;SDS011;10507;52.754;13.040;2023-05-15T10:14:36;5.97;;;4.40;;
20695;SDS011;10507;52.754;13.040;2023-05-15T10:17:07;6.05;;;4.30;;
20695;SDS011;10507;52.754;13.040;2023-05-15T10:19:45;8.57;;;4.28;;
20695;SDS011;10507;52.754;13.040;2023-05-15T10:22:24;5.60;;;4.20;;
20695;SDS011;10507;52.754;13.040;2023-05-15T10:25:02;9.52;;;3.88;;
20695;SDS011;10507;52.754;13.040;2023-05-15T10:27:42;6.68;;;3.63;;
20695;SDS011;10507;52.754;13.040;2023-05-15T10:30:26;7.70;;;4.40;;
20695;SDS011;10507;52.754;13.040;2023-05-15T10:33:08;9.23;;;4.43;;
20695;SDS011;10507;52.754;13.040;2023-05-15T10:35:48;6.25;;;4.05;;
20695;SDS011;10507;52.754;13.040;2023-05-15T10:38:25;7.00;;;4.15;;
20695;SDS011;10507;52.754;13.040;2023-05-15T10:40:58;6.18;;;4.22;;
20695;SDS011;10507;52.754;13.040;2023-05-15T10:43:46;7.38;;;4.53;;
20695;SDS011;10507;52.754;13.040;2023-05-15T10:46:16;6.68;;;4.35;;
20695;SDS011;10507;52.754;13.040;2023-05-15T10:48:46;8.50;;;3.92;;
20695;SDS011;10507;52.754;13.040;2023-05-15T10:51:14;7.22;;;4.18;;
20695;SDS011;10507;52.754;13.040;2023-05-15T10:54:00;5.78;;;4.13;;
20695;SDS011;10507;52.754;13.040;2023-05-15T10:56:32;5.25;;;4.20;;
20695;SDS011;10507;52.754;13.040;2023-05-15T10:59:12;7.70;;;3.90;;
20695;SDS011;10507;52.754;13.040;2023-05-15T11:01:43;5.88;;;4.03;;
20695;SDS011;10507;52.754;13.040;2023-05-15T11:04:16;6.97;;;3.88;;
20695;SDS011;10507;52.754;13.040;2023-05-15T11:07:10;6.97;;;4.40;;
20695;SDS011;10507;52.754;13.040;2023-05-15T11:09:43;7.47;;;4.20;;
20695;SDS011;10507;52.754;13.040;2023-05-15T11:12:13;6.47;;;3.80;;
20695;SDS011;10507;52.754;13.040;2023-05-15T11:18:03;5.85;;;3.50;;
20695;SDS011;10507;52.754;13.040;2023-05-15T11:20:33;6.35;;;4.57;;
20695;SDS011;10507;52.754;13.040;2023-05-15T11:23:07;5.75;;;3.80;;
20695;SDS011;10507;52.754;13.040;2023-05-15T11:25:36;4.88;;;3.63;;
20695;SDS011;10507;52.754;13.040;2023-05-15T11:28:14;5.55;;;3.80;;
20695;SDS011;10507;52.754;13.040;2023-05-15T11:30:52;5.40;;;4.18;;
20695;SDS011;10507;52.754;13.040;2023-05-15T11:33:31;7.50;;;3.67;;
20695;SDS011;10507;52.754;13.040;2023-05-15T11:36:06;7.28;;;3.75;;
20695;SDS011;10507;52.754;13.040;2023-05-15T11:38:45;6.18;;;3.63;;
20695;SDS011;10507;52.754;13.040;2023-05-15T11:41:22;6.80;;;3.60;;
20695;SDS011;10507;52.754;13.040;2023-05-15T11:44:01;5.00;;;3.58;;
20695;SDS011;10507;52.754;13.040;2023-05-15T11:46:36;4.60;;;3.10;;
20695;SDS011;10507;52.754;13.040;2023-05-15T11:49:09;6.30;;;3.22;;
20695;SDS011;10507;52.754;13.040;2023-05-15T11:51:41;3.92;;;3.00;;
20695;SDS011;10507;52.754;13.040;2023-05-15T11:54:25;3.85;;;2.83;;
20695;SDS011;10507;52.754;13.040;2023-05-15T11:56:55;3.67;;;2.30;;
20695;SDS011;10507;52.754;13.040;2023-05-15T11:59:25;3.67;;;2.50;;
20695;SDS011;10507;52.754;13.040;2023-05-15T12:01:54;3.08;;;2.35;;
20695;SDS011;10507;52.754;13.040;2023-05-15T12:04:23;4.47;;;2.65;;
20695;SDS011;10507;52.754;13.040;2023-05-15T12:06:52;4.20;;;2.47;;
20695;SDS011;10507;52.754;13.040;2023-05-15T12:09:28;3.72;;;2.60;;
20695;SDS011;10507;52.754;13.040;2023-05-15T12:11:56;3.22;;;2.80;;
20695;SDS011;10507;52.754;13.040;2023-05-15T12:14:28;4.18;;;2.72;;
20695;SDS011;10507;52.754;13.040;2023-05-15T12:17:03;5.38;;;3.17;;
20695;SDS011;10507;52.754;13.040;2023-05-15T12:19:32;8.85;;;3.95;;
20695;SDS011;10507;52.754;13.040;2023-05-15T12:22:03;4.28;;;3.35;;
20695;SDS011;10507;52.754;13.040;2023-05-15T12:24:36;6.45;;;3.38;;
20695;SDS011;10507;52.754;13.040;2023-05-15T12:27:05;5.10;;;3.70;;
20695;SDS011;10507;52.754;13.040;2023-05-15T12:29:34;5.63;;;3.80;;
20695;SDS011;10507;52.754;13.040;2023-05-15T12:32:06;6.25;;;3.47;;
20695;SDS011;10507;52.754;13.040;2023-05-15T12:34:36;5.65;;;3.42;;
20695;SDS011;10507;52.754;13.040;2023-05-15T12:37:17;6.47;;;4.03;;
20695;SDS011;10507;52.754;13.040;2023-05-15T12:39:50;5.32;;;3.33;;
20695;SDS011;10507;52.754;13.040;2023-05-15T12:42:24;4.18;;;2.60;;
20695;SDS011;10507;52.754;13.040;2023-05-15T12:45:10;4.18;;;3.05;;
20695;SDS011;10507;52.754;13.040;2023-05-15T12:47:50;4.10;;;2.90;;
20695;SDS011;10507;52.754;13.040;2023-05-15T12:50:34;3.20;;;2.40;;
20695;SDS011;10507;52.754;13.040;2023-05-15T12:53:03;3.20;;;2.20;;
20695;SDS011;10507;52.754;13.040;2023-05-15T12:55:38;4.97;;;2.40;;
20695;SDS011;10507;52.754;13.040;2023-05-15T12:58:10;3.30;;;2.05;;
20695;SDS011;10507;52.754;13.040;2023-05-15T13:00:43;3.90;;;1.90;;
20695;SDS011;10507;52.754;13.040;2023-05-15T13:03:14;2.20;;;2.00;;
20695;SDS011;10507;52.754;13.040;2023-05-15T13:05:50;5.93;;;2.50;;
20695;SDS011;10507;52.754;13.040;2023-05-15T13:08:24;2.95;;;1.80;;
20695;SDS011;10507;52.754;13.040;2023-05-15T13:11:00;4.82;;;1.75;;
20695;SDS011;10507;52.754;13.040;2023-05-15T13:13:43;3.13;;;2.13;;
20695;SDS011;10507;52.754;13.040;2023-05-15T13:16:19;3.10;;;2.17;;
20695;SDS011;10507;52.754;13.040;2023-05-15T13:18:57;4.25;;;2.50;;
20695;SDS011;10507;52.754;13.040;2023-05-15T13:21:26;4.15;;;2.28;;
20695;SDS011;10507;52.754;13.040;2023-05-15T13:23:55;6.15;;;2.58;;
20695;SDS011;10507;52.754;13.040;2023-05-15T13:26:24;3.15;;;2.17;;
20695;SDS011;10507;52.754;13.040;2023-05-15T13:29:04;3.38;;;1.92;;
20695;SDS011;10507;52.754;13.040;2023-05-15T13:31:37;3.88;;;1.90;;
20695;SDS011;10507;52.754;13.040;2023-05-15T13:34:40;2.97;;;1.98;;
20695;SDS011;10507;52.754;13.040;2023-05-15T13:37:36;2.80;;;2.20;;
20695;SDS011;10507;52.754;13.040;2023-05-15T13:40:06;2.38;;;2.17;;
20695;SDS011;10507;52.754;13.040;2023-05-15T13:42:40;4.85;;;2.50;;
20695;SDS011;10507;52.754;13.040;2023-05-15T13:45:11;5.18;;;1.63;;
20695;SDS011;10507;52.754;13.040;2023-05-15T13:47:43;4.53;;;2.45;;
20695;SDS011;10507;52.754;13.040;2023-05-15T13:50:18;3.38;;;1.92;;
20695;SDS011;10507;52.754;13.040;2023-05-15T13:52:50;9.50;;;2.00;;
20695;SDS011;10507;52.754;13.040;2023-05-15T13:55:22;7.68;;;2.20;;
20695;SDS011;10507;52.754;13.040;2023-05-15T13:57:52;3.42;;;1.63;;
20695;SDS011;10507;52.754;13.040;2023-05-15T14:00:21;3.30;;;1.48;;
20695;SDS011;10507;52.754;13.040;2023-05-15T14:02:50;1.80;;;1.30;;
20695;SDS011;10507;52.754;13.040;2023-05-15T14:05:20;2.78;;;1.60;;
20695;SDS011;10507;52.754;13.040;2023-05-15T14:11:30;3.20;;;1.92;;
20695;SDS011;10507;52.754;13.040;2023-05-15T14:13:58;3.50;;;1.75;;
20695;SDS011;10507;52.754;13.040;2023-05-15T14:16:26;4.55;;;1.73;;
20695;SDS011;10507;52.754;13.040;2023-05-15T14:18:54;3.28;;;1.67;;
20695;SDS011;10507;52.754;13.040;2023-05-15T14:21:24;4.03;;;1.90;;
20695;SDS011;10507;52.754;13.040;2023-05-15T14:23:52;4.25;;;2.10;;
20695;SDS011;10507;52.754;13.040;2023-05-15T14:26:20;2.72;;;1.73;;
20695;SDS011;10507;52.754;13.040;2023-05-15T14:28:48;3.33;;;1.63;;
20695;SDS011;10507;52.754;13.040;2023-05-15T14:31:16;2.22;;;1.45;;
20695;SDS011;10507;52.754;13.040;2023-05-15T14:33:44;2.20;;;1.60;;
20695;SDS011;10507;52.754;13.040;2023-05-15T14:36:12;2.05;;;1.45;;
20695;SDS011;10507;52.754;13.040;2023-05-15T14:38:42;2.47;;;1.83;;
20695;SDS011;10507;52.754;13.040;2023-05-15T14:41:10;5.03;;;1.85;;
20695;SDS011;10507;52.754;13.040;2023-05-15T14:43:38;4.57;;;2.05;;
20695;SDS011;10507;52.754;13.040;2023-05-15T14:46:06;4.78;;;1.80;;
20695;SDS011;10507;52.754;13.040;2023-05-15T14:48:36;3.60;;;2.00;;
20695;SDS011;10507;52.754;13.040;2023-05-15T14:51:06;3.13;;;2.00;;
20695;SDS011;10507;52.754;13.040;2023-05-15T14:53:37;2.67;;;1.90;;
20695;SDS011;10507;52.754;13.040;2023-05-15T14:56:06;1.92;;;1.70;;
20695;SDS011;10507;52.754;13.040;2023-05-15T14:58:34;5.28;;;1.90;;
20695;SDS011;10507;52.754;13.040;2023-05-15T15:08:33;2.90;;;1.88;;
20695;SDS011;10507;52.754;13.040;2023-05-15T15:11:07;1.67;;;1.58;;
20695;SDS011;10507;52.754;13.040;2023-05-15T15:13:43;2.13;;;1.60;;
20695;SDS011;10507;52.754;13.040;2023-05-15T15:16:11;2.75;;;1.60;;
20695;SDS011;10507;52.754;13.040;2023-05-15T15:18:39;2.78;;;1.67;;
20695;SDS011;10507;52.754;13.040;2023-05-15T15:21:08;2.50;;;1.75;;
20695;SDS011;10507;52.754;13.040;2023-05-15T15:23:37;1.90;;;1.60;;
20695;SDS011;10507;52.754;13.040;2023-05-15T15:26:11;4.50;;;1.85;;
20695;SDS011;10507;52.754;13.040;2023-05-15T15:29:10;3.58;;;1.80;;